Time;durP1;ratioP1;P1;durP2;ratioP2;P2;SDS_P1;SDS_P2;PMS_P1;PMS_P2;Temp;Humidity;BMP_temperature;BMP_pressure;BME280_temperature;BME280_humidity;BME280_pressure;Samples;Min_cycle;Max_cycle;Signal;HPM_P1;HPM_P2
2023/12/10 00:00:09;;;;;;;13.85;4.18;;;;;;;;;;5110795;28;20397;-60
2023/12/10 00:02:35;;;;;;;22.38;3.92;;;;;;;;;;5110743;28;20043;-59
2023/12/10 00:05:01;;;;;;;17.13;4.40;;;;;;;;;;5109735;28;20175;-59
2023/12/10 00:07:27;;;;;;;21.95;5.45;;;;;;;;;;5108395;28;20115;-60
2023/12/10 00:09:53;;;;;;;22.10;4.50;;;;;;;;;;5110641;28;20040;-59
2023/12/10 00:12:19;;;;;;;19.65;4.32;;;;;;;;;;5108235;28;20425;-60
2023/12/10 00:14:49;;;;;;;24.42;4.72;;;;;;;;;;5116399;27;20046;-60
2023/12/10 00:17:15;;;;;;;16.08;3.60;;;;;;;;;;5093846;27;20063;-59
2023/12/10 00:19:41;;;;;;;20.30;4.82;;;;;;;;;;5112671;27;20039;-59
2023/12/10 00:22:07;;;;;;;24.27;5.03;;;;;;;;;;5108562;27;20387;-59
2023/12/10 00:24:33;;;;;;;12.43;3.15;;;;;;;;;;5107551;27;20487;-60
2023/12/10 00:26:59;;;;;;;22.70;5.32;;;;;;;;;;5116262;27;20505;-60
2023/12/10 00:29:26;;;;;;;20.20;4.53;;;;;;;;;;5117433;27;20043;-60
2023/12/10 00:31:52;;;;;;;16.98;3.88;;;;;;;;;;5113982;27;20035;-60
2023/12/10 00:34:18;;;;;;;12.02;4.28;;;;;;;;;;5113482;27;20051;-60
2023/12/10 00:36:44;;;;;;;20.40;4.45;;;;;;;;;;5118015;27;20031;-61
2023/12/10 00:39:10;;;;;;;19.33;4.20;;;;;;;;;;5111528;27;20040;-60
2023/12/10 00:41:36;;;;;;;15.52;4.38;;;;;;;;;;5102895;27;20411;-60
2023/12/10 00:44:03;;;;;;;16.90;4.65;;;;;;;;;;5117461;27;20117;-59
2023/12/10 00:46:29;;;;;;;14.80;3.53;;;;;;;;;;5123383;27;20479;-60
2023/12/10 00:48:55;;;;;;;21.52;4.65;;;;;;;;;;5121788;27;20691;-60
2023/12/10 00:51:22;;;;;;;21.83;4.15;;;;;;;;;;5122088;27;20721;-60
2023/12/10 00:53:48;;;;;;;21.98;4.85;;;;;;;;;;5121831;27;20046;-59
2023/12/10 00:56:14;;;;;;;18.17;4.30;;;;;;;;;;5115148;27;20038;-59
2023/12/10 00:58:40;;;;;;;22.75;4.78;;;;;;;;;;5117410;27;20615;-59
2023/12/10 01:01:09;;;;;;;16.23;4.43;;;;;;;;;;5121870;27;20075;-60
2023/12/10 01:03:35;;;;;;;22.33;4.50;;;;;;;;;;5117586;27;20407;-58
2023/12/10 01:06:03;;;;;;;13.02;3.65;;;;;;;;;;5122000;27;20047;-58
2023/12/10 01:08:29;;;;;;;20.35;4.18;;;;;;;;;;5117526;27;20158;-59
2023/12/10 01:10:55;;;;;;;15.85;4.15;;;;;;;;;;5093539;28;20035;-59
2023/12/10 01:13:24;;;;;;;15.38;3.88;;;;;;;;;;5119459;27;20038;-59
2023/12/10 01:15:50;;;;;;;12.77;3.20;;;;;;;;;;5121401;27;20039;-59
2023/12/10 01:18:16;;;;;;;17.45;4.03;;;;;;;;;;5111920;27;20039;-59
2023/12/10 01:20:42;;;;;;;11.00;3.42;;;;;;;;;;5106098;27;20039;-59
2023/12/10 01:23:09;;;;;;;15.30;3.35;;;;;;;;;;5106752;27;20053;-58
2023/12/10 01:25:35;;;;;;;17.42;3.63;;;;;;;;;;5104928;27;20063;-59
2023/12/10 01:28:01;;;;;;;14.48;3.47;;;;;;;;;;5105901;27;20031;-59
2023/12/10 01:30:27;;;;;;;13.48;2.78;;;;;;;;;;5116507;27;20552;-59
2023/12/10 01:33:00;;;;;;;12.13;3.08;;;;;;;;;;5116711;27;20743;-59
2023/12/10 01:35:27;;;;;;;14.90;3.53;;;;;;;;;;5115617;27;20075;-59
2023/12/10 01:37:53;;;;;;;13.85;3.13;;;;;;;;;;5112751;27;20135;-59
2023/12/10 01:40:19;;;;;;;16.42;3.63;;;;;;;;;;5121075;27;20062;-59
2023/12/10 01:42:46;;;;;;;15.48;4.03;;;;;;;;;;5121889;27;20043;-59
2023/12/10 01:45:12;;;;;;;19.08;5.38;;;;;;;;;;5114264;27;20035;-58
2023/12/10 01:47:42;;;;;;;18.88;3.58;;;;;;;;;;5116497;27;20036;-59
2023/12/10 01:50:11;;;;;;;13.88;3.30;;;;;;;;;;5119020;27;20773;-59
2023/12/10 01:52:37;;;;;;;13.27;3.85;;;;;;;;;;5112854;27;20035;-59
2023/12/10 01:55:04;;;;;;;16.17;3.72;;;;;;;;;;5113015;27;20096;-58
2023/12/10 01:57:30;;;;;;;17.15;4.80;;;;;;;;;;5110789;27;20047;-59
2023/12/10 01:59:58;;;;;;;15.27;3.88;;;;;;;;;;5117185;27;20537;-59
2023/12/10 02:02:24;;;;;;;16.50;3.65;;;;;;;;;;5114148;27;20035;-59
2023/12/10 02:04:53;;;;;;;12.68;3.40;;;;;;;;;;5120101;27;20031;-59
2023/12/10 02:07:20;;;;;;;18.63;3.50;;;;;;;;;;5113873;27;20047;-59
2023/12/10 02:09:46;;;;;;;14.55;3.83;;;;;;;;;;5115921;27;20039;-59
2023/12/10 02:12:12;;;;;;;12.02;3.42;;;;;;;;;;5119966;27;20039;-59
2023/12/10 02:14:39;;;;;;;16.02;3.78;;;;;;;;;;5115568;27;20133;-59
2023/12/10 02:17:05;;;;;;;20.80;3.78;;;;;;;;;;5113580;27;20039;-59
2023/12/10 02:19:31;;;;;;;20.05;3.72;;;;;;;;;;5116354;27;20043;-59
2023/12/10 02:21:59;;;;;;;17.15;4.10;;;;;;;;;;5112084;27;20036;-59
2023/12/10 02:24:32;;;;;;;13.65;3.65;;;;;;;;;;5116544;27;20043;-59
2023/12/10 02:26:59;;;;;;;14.43;3.50;;;;;;;;;;5113383;27;20692;-59
2023/12/10 02:29:25;;;;;;;11.13;3.30;;;;;;;;;;5116277;27;20686;-59
2023/12/10 02:31:51;;;;;;;20.77;3.72;;;;;;;;;;5113712;27;20028;-58
2023/12/10 02:34:17;;;;;;;14.05;3.33;;;;;;;;;;5114434;27;20042;-59
2023/12/10 02:36:43;;;;;;;10.32;2.95;;;;;;;;;;5115525;27;20112;-59
2023/12/10 02:39:10;;;;;;;12.93;3.13;;;;;;;;;;5112523;27;20610;-59
2023/12/10 02:41:37;;;;;;;10.45;2.88;;;;;;;;;;5114212;27;20407;-58
2023/12/10 02:44:03;;;;;;;17.55;3.83;;;;;;;;;;5118983;27;20625;-59
2023/12/10 02:46:29;;;;;;;16.15;3.72;;;;;;;;;;5117007;27;20031;-59
2023/12/10 02:48:55;;;;;;;22.40;3.92;;;;;;;;;;5112453;27;20046;-59
2023/12/10 02:51:21;;;;;;;15.15;3.80;;;;;;;;;;5114783;27;20544;-59
2023/12/10 02:53:47;;;;;;;13.45;3.47;;;;;;;;;;5115225;27;20032;-59
2023/12/10 02:56:13;;;;;;;15.60;4.13;;;;;;;;;;5109546;27;20035;-59
2023/12/10 02:58:39;;;;;;;15.73;3.83;;;;;;;;;;5117732;27;20041;-59
2023/12/10 03:01:05;;;;;;;11.45;2.88;;;;;;;;;;5120007;27;20076;-59
2023/12/10 03:03:31;;;;;;;14.68;3.30;;;;;;;;;;5117491;27;20509;-59
2023/12/10 03:05:57;;;;;;;10.60;3.47;;;;;;;;;;5122023;27;20035;-59
2023/12/10 03:08:23;;;;;;;11.85;2.42;;;;;;;;;;5119996;27;20142;-59
2023/12/10 03:10:49;;;;;;;11.57;2.63;;;;;;;;;;5121098;27;20121;-59
2023/12/10 03:13:15;;;;;;;14.98;3.40;;;;;;;;;;5116148;27;20131;-59
2023/12/10 03:15:41;;;;;;;12.50;2.42;;;;;;;;;;5116174;27;20095;-58
2023/12/10 03:18:07;;;;;;;12.30;3.13;;;;;;;;;;5116762;27;20689;-59
2023/12/10 03:20:33;;;;;;;10.60;2.92;;;;;;;;;;5118241;27;20046;-59
2023/12/10 03:23:00;;;;;;;11.35;3.22;;;;;;;;;;5113737;27;20043;-58
2023/12/10 03:25:26;;;;;;;8.90;2.72;;;;;;;;;;5115562;27;20708;-59
2023/12/10 03:27:52;;;;;;;10.13;3.20;;;;;;;;;;5113882;27;20553;-59
2023/12/10 03:30:18;;;;;;;7.20;2.63;;;;;;;;;;5113361;28;20673;-59
2023/12/10 03:32:44;;;;;;;9.40;3.05;;;;;;;;;;5117687;28;20084;-59
2023/12/10 03:35:10;;;;;;;14.95;3.80;;;;;;;;;;5116947;28;20039;-59
2023/12/10 03:37:36;;;;;;;10.60;2.45;;;;;;;;;;5112842;28;20039;-59
2023/12/10 03:40:03;;;;;;;9.73;2.33;;;;;;;;;;5111185;28;20035;-59
2023/12/10 03:42:29;;;;;;;6.53;1.73;;;;;;;;;;5108806;28;20039;-59
2023/12/10 03:44:58;;;;;;;8.93;2.05;;;;;;;;;;5111092;28;20457;-59
2023/12/10 03:47:24;;;;;;;6.13;2.15;;;;;;;;;;5110739;27;20040;-59
2023/12/10 03:49:50;;;;;;;6.07;1.58;;;;;;;;;;5120834;27;20058;-58
2023/12/10 03:52:16;;;;;;;6.75;1.80;;;;;;;;;;5115593;27;20138;-59
2023/12/10 03:54:42;;;;;;;9.43;1.63;;;;;;;;;;5122057;27;20110;-58
2023/12/10 03:57:08;;;;;;;5.50;1.33;;;;;;;;;;5117746;27;20124;-58
2023/12/10 03:59:34;;;;;;;6.22;1.63;;;;;;;;;;5114846;27;20048;-59
2023/12/10 04:02:00;;;;;;;4.70;1.50;;;;;;;;;;5120925;27;20434;-59
2023/12/10 04:04:26;;;;;;;4.65;1.23;;;;;;;;;;5118432;27;20586;-59
2023/12/10 04:06:52;;;;;;;6.85;1.38;;;;;;;;;;5120542;27;20035;-59
2023/12/10 04:09:18;;;;;;;6.30;1.83;;;;;;;;;;5116311;27;20059;-59
2023/12/10 04:11:44;;;;;;;4.53;1.45;;;;;;;;;;5119013;27;20495;-59
2023/12/10 04:14:11;;;;;;;8.68;1.52;;;;;;;;;;5117257;27;20403;-58
2023/12/10 04:16:37;;;;;;;6.35;1.65;;;;;;;;;;5118364;27;20105;-59
2023/12/10 04:19:04;;;;;;;7.53;1.42;;;;;;;;;;5121272;27;20043;-59
2023/12/10 04:21:30;;;;;;;4.60;1.70;;;;;;;;;;5122308;27;20054;-59
2023/12/10 04:23:56;;;;;;;7.25;2.15;;;;;;;;;;5117243;27;20126;-58
2023/12/10 04:26:22;;;;;;;8.40;2.05;;;;;;;;;;5121636;27;20036;-59
2023/12/10 04:28:49;;;;;;;5.78;1.52;;;;;;;;;;5115618;27;20040;-60
2023/12/10 04:31:15;;;;;;;4.78;2.00;;;;;;;;;;5120996;27;20126;-58
2023/12/10 04:33:44;;;;;;;6.43;2.20;;;;;;;;;;5113477;27;21122;-59
2023/12/10 04:36:14;;;;;;;10.23;2.42;;;;;;;;;;5117949;27;20066;-59
2023/12/10 04:38:40;;;;;;;5.28;2.30;;;;;;;;;;5116173;27;20130;-59
2023/12/10 04:41:06;;;;;;;9.90;2.40;;;;;;;;;;5117531;27;20035;-59
2023/12/10 04:43:32;;;;;;;8.75;2.03;;;;;;;;;;5114046;27;20069;-59
2023/12/10 04:45:58;;;;;;;5.97;2.67;;;;;;;;;;5113411;27;20044;-59
2023/12/10 04:48:25;;;;;;;5.82;1.73;;;;;;;;;;5117567;27;20101;-59
2023/12/10 04:50:51;;;;;;;6.07;2.30;;;;;;;;;;5117802;27;20043;-59
2023/12/10 04:53:17;;;;;;;7.07;2.80;;;;;;;;;;5114639;27;20075;-59
2023/12/10 04:55:43;;;;;;;4.65;1.75;;;;;;;;;;5117979;27;20038;-59
2023/12/10 04:58:09;;;;;;;5.47;1.70;;;;;;;;;;5117120;27;20078;-59
2023/12/10 05:00:35;;;;;;;6.13;2.35;;;;;;;;;;5117749;27;20189;-59
2023/12/10 05:03:01;;;;;;;11.23;2.33;;;;;;;;;;5097724;27;20047;-59
2023/12/10 05:05:27;;;;;;;9.00;1.70;;;;;;;;;;5115588;27;20055;-59
2023/12/10 05:07:53;;;;;;;9.50;2.25;;;;;;;;;;5119269;27;20055;-59
2023/12/10 05:10:21;;;;;;;6.22;1.60;;;;;;;;;;5116267;27;20043;-59
2023/12/10 05:12:47;;;;;;;5.13;1.55;;;;;;;;;;5119106;27;20043;-59
2023/12/10 05:15:14;;;;;;;4.97;1.90;;;;;;;;;;5103107;27;20049;-59
2023/12/10 05:17:40;;;;;;;5.80;1.95;;;;;;;;;;5120297;27;20096;-60
2023/12/10 05:20:07;;;;;;;6.85;1.70;;;;;;;;;;5117250;27;20046;-59
2023/12/10 05:22:33;;;;;;;5.55;1.95;;;;;;;;;;5118595;27;20039;-59
2023/12/10 05:24:59;;;;;;;7.68;1.85;;;;;;;;;;5117515;27;20093;-59
2023/12/10 05:27:26;;;;;;;6.03;1.33;;;;;;;;;;5118036;27;20043;-60
2023/12/10 05:29:52;;;;;;;4.18;1.23;;;;;;;;;;5116495;27;20043;-59
2023/12/10 05:32:18;;;;;;;4.50;1.17;;;;;;;;;;5120504;27;20078;-59
2023/12/10 05:34:44;;;;;;;6.13;1.38;;;;;;;;;;5120755;27;20067;-59
2023/12/10 05:37:10;;;;;;;5.15;1.05;;;;;;;;;;5116282;27;20432;-59
2023/12/10 05:39:36;;;;;;;5.43;1.70;;;;;;;;;;5099272;27;20055;-59
2023/12/10 05:42:02;;;;;;;4.95;1.30;;;;;;;;;;5119470;27;20109;-59
2023/12/10 05:44:28;;;;;;;2.55;0.77;;;;;;;;;;5120559;27;20051;-59
2023/12/10 05:46:54;;;;;;;5.93;0.80;;;;;;;;;;5113331;27;20085;-59
2023/12/10 05:49:22;;;;;;;3.53;1.13;;;;;;;;;;5117210;27;20132;-59
2023/12/10 05:51:48;;;;;;;3.88;0.98;;;;;;;;;;5114390;27;20112;-59
2023/12/10 05:54:14;;;;;;;5.30;1.05;;;;;;;;;;5116895;27;20031;-58
2023/12/10 05:56:41;;;;;;;4.63;1.15;;;;;;;;;;5118107;27;20096;-59
2023/12/10 05:59:07;;;;;;;3.53;1.25;;;;;;;;;;5113092;27;20047;-59
2023/12/10 06:01:33;;;;;;;2.80;0.85;;;;;;;;;;5114933;27;20040;-59
2023/12/10 06:03:59;;;;;;;9.88;1.17;;;;;;;;;;5119881;27;20530;-59
2023/12/10 06:06:25;;;;;;;6.18;1.48;;;;;;;;;;5116113;27;20047;-59
2023/12/10 06:08:51;;;;;;;3.47;1.25;;;;;;;;;;5112876;27;20927;-59
2023/12/10 06:11:18;;;;;;;6.60;1.92;;;;;;;;;;5116824;27;20145;-59
2023/12/10 06:13:44;;;;;;;6.00;0.90;;;;;;;;;;5118097;27;20039;-59
2023/12/10 06:16:10;;;;;;;5.35;1.83;;;;;;;;;;5112466;27;20038;-59
2023/12/10 06:18:36;;;;;;;8.88;2.53;;;;;;;;;;5120460;27;20035;-59
2023/12/10 06:21:02;;;;;;;7.57;1.73;;;;;;;;;;5114841;27;20042;-59
2023/12/10 06:23:28;;;;;;;10.98;2.88;;;;;;;;;;5115602;27;20047;-59
2023/12/10 06:25:54;;;;;;;6.38;2.13;;;;;;;;;;5117004;27;20035;-59
2023/12/10 06:28:20;;;;;;;13.43;2.72;;;;;;;;;;5118126;27;20579;-59
2023/12/10 06:30:46;;;;;;;10.98;2.55;;;;;;;;;;5112529;27;20043;-59
2023/12/10 06:33:12;;;;;;;17.45;3.05;;;;;;;;;;5116062;27;20050;-59
2023/12/10 06:35:38;;;;;;;11.38;2.53;;;;;;;;;;5117389;27;20525;-59
2023/12/10 06:38:04;;;;;;;8.20;2.72;;;;;;;;;;5115024;27;20544;-59
2023/12/10 06:40:30;;;;;;;14.98;3.50;;;;;;;;;;5115599;27;20039;-57
2023/12/10 06:42:56;;;;;;;12.57;3.20;;;;;;;;;;5114236;27;20085;-57
2023/12/10 06:45:22;;;;;;;5.80;2.33;;;;;;;;;;5115445;27;20035;-57
2023/12/10 06:47:48;;;;;;;22.65;3.80;;;;;;;;;;5114290;27;20046;-57
2023/12/10 06:50:14;;;;;;;13.55;2.55;;;;;;;;;;5112339;27;20054;-57
2023/12/10 06:52:40;;;;;;;12.73;3.20;;;;;;;;;;5116151;27;20406;-57
2023/12/10 06:55:06;;;;;;;11.60;2.97;;;;;;;;;;5108633;27;20035;-57
2023/12/10 06:57:32;;;;;;;6.03;1.70;;;;;;;;;;5115749;27;20379;-57
2023/12/10 06:59:58;;;;;;;8.20;2.53;;;;;;;;;;5111942;27;20051;-57
2023/12/10 07:02:24;;;;;;;8.02;2.08;;;;;;;;;;5115319;27;20139;-57
2023/12/10 07:04:50;;;;;;;10.07;2.08;;;;;;;;;;5121082;27;20052;-57
2023/12/10 07:07:16;;;;;;;11.68;2.00;;;;;;;;;;5120126;27;20035;-57
2023/12/10 07:09:42;;;;;;;5.72;1.92;;;;;;;;;;5116773;27;20036;-57
2023/12/10 07:12:08;;;;;;;15.20;2.90;;;;;;;;;;5117439;27;20043;-57
2023/12/10 07:14:34;;;;;;;6.47;1.70;;;;;;;;;;5115057;27;20041;-57
2023/12/10 07:17:00;;;;;;;10.77;2.33;;;;;;;;;;5118806;27;20122;-59
2023/12/10 07:19:27;;;;;;;7.80;1.55;;;;;;;;;;5116677;27;20126;-59
2023/12/10 07:21:55;;;;;;;7.63;1.98;;;;;;;;;;5118459;27;20031;-59
2023/12/10 07:24:21;;;;;;;5.07;1.40;;;;;;;;;;5116872;27;20046;-59
2023/12/10 07:26:48;;;;;;;9.25;2.17;;;;;;;;;;5114874;27;20039;-59
2023/12/10 07:29:14;;;;;;;7.93;1.50;;;;;;;;;;5117481;27;20043;-59
2023/12/10 07:31:40;;;;;;;7.63;2.10;;;;;;;;;;5116661;28;20990;-59
2023/12/10 07:34:06;;;;;;;2.45;1.10;;;;;;;;;;5115297;28;20463;-59
2023/12/10 07:36:32;;;;;;;4.68;1.50;;;;;;;;;;5114507;28;20487;-59
2023/12/10 07:38:58;;;;;;;4.30;1.55;;;;;;;;;;5118174;28;20050;-59
2023/12/10 07:41:24;;;;;;;5.70;1.65;;;;;;;;;;5117253;28;20040;-59
2023/12/10 07:43:50;;;;;;;8.57;1.75;;;;;;;;;;5114170;28;20130;-59
2023/12/10 07:46:16;;;;;;;5.85;1.35;;;;;;;;;;5115429;28;20115;-59
2023/12/10 07:48:42;;;;;;;8.80;2.00;;;;;;;;;;5112769;27;20145;-59
2023/12/10 07:51:08;;;;;;;6.75;2.08;;;;;;;;;;5110318;28;20530;-59
2023/12/10 07:53:34;;;;;;;5.75;1.40;;;;;;;;;;5118840;28;20046;-59
2023/12/10 07:56:00;;;;;;;5.18;1.50;;;;;;;;;;5110983;28;20044;-59
2023/12/10 07:58:26;;;;;;;4.90;1.48;;;;;;;;;;5115036;28;20050;-59
2023/12/10 08:00:52;;;;;;;8.60;1.55;;;;;;;;;;5112035;28;20093;-59
2023/12/10 08:03:18;;;;;;;9.18;1.58;;;;;;;;;;5112329;28;20045;-59
2023/12/10 08:05:44;;;;;;;10.68;2.50;;;;;;;;;;5108579;28;20122;-59
2023/12/10 08:08:10;;;;;;;5.03;1.55;;;;;;;;;;5110237;28;20376;-59
2023/12/10 08:10:36;;;;;;;7.32;1.70;;;;;;;;;;5110119;28;20044;-58
2023/12/10 08:13:02;;;;;;;7.10;1.60;;;;;;;;;;5115880;27;20514;-59
2023/12/10 08:15:29;;;;;;;8.57;2.08;;;;;;;;;;5116277;28;20044;-59
2023/12/10 08:17:55;;;;;;;4.28;1.25;;;;;;;;;;5112277;28;20781;-59
2023/12/10 08:20:21;;;;;;;6.13;1.30;;;;;;;;;;5111334;28;20039;-59
2023/12/10 08:22:50;;;;;;;4.53;1.63;;;;;;;;;;5112915;28;20640;-59
2023/12/10 08:25:16;;;;;;;3.13;1.23;;;;;;;;;;5114419;28;20483;-59
2023/12/10 08:27:42;;;;;;;4.85;1.52;;;;;;;;;;5111752;28;20043;-59
2023/12/10 08:30:09;;;;;;;6.68;1.92;;;;;;;;;;5117154;28;20381;-59
2023/12/10 08:32:35;;;;;;;15.85;3.10;;;;;;;;;;5114791;27;20114;-59
2023/12/10 08:35:01;;;;;;;7.80;1.85;;;;;;;;;;5116040;27;20042;-59
2023/12/10 08:37:27;;;;;;;5.13;1.92;;;;;;;;;;5119551;27;20066;-59
2023/12/10 08:39:53;;;;;;;5.63;1.95;;;;;;;;;;5118721;27;20048;-59
2023/12/10 08:42:19;;;;;;;8.68;1.92;;;;;;;;;;5121719;27;20039;-59
2023/12/10 08:44:45;;;;;;;4.80;1.50;;;;;;;;;;5121178;27;20081;-59
2023/12/10 08:47:11;;;;;;;3.10;1.10;;;;;;;;;;5117077;27;20515;-59
2023/12/10 08:49:37;;;;;;;4.80;1.73;;;;;;;;;;5117861;27;20059;-59
2023/12/10 08:52:03;;;;;;;6.32;1.77;;;;;;;;;;5117932;27;20035;-59
2023/12/10 08:54:29;;;;;;;4.55;1.95;;;;;;;;;;5114260;27;20053;-59
2023/12/10 08:56:55;;;;;;;7.32;2.25;;;;;;;;;;5118403;27;20104;-59
2023/12/10 08:59:21;;;;;;;10.10;3.00;;;;;;;;;;5116285;27;20507;-59
2023/12/10 09:01:47;;;;;;;10.70;2.60;;;;;;;;;;5115915;27;20046;-59
2023/12/10 09:04:13;;;;;;;13.30;2.92;;;;;;;;;;5116638;27;20063;-59
2023/12/10 09:06:39;;;;;;;8.10;2.40;;;;;;;;;;5119745;27;20435;-59
2023/12/10 09:09:05;;;;;;;9.75;3.75;;;;;;;;;;5115093;27;20399;-59
2023/12/10 09:11:31;;;;;;;8.43;2.80;;;;;;;;;;5118864;27;20047;-59
2023/12/10 09:13:57;;;;;;;16.90;3.35;;;;;;;;;;5112825;27;20043;-59
2023/12/10 09:16:24;;;;;;;12.77;3.20;;;;;;;;;;5118193;27;20036;-59
2023/12/10 09:18:50;;;;;;;10.45;2.45;;;;;;;;;;5119996;27;20050;-59
2023/12/10 09:21:16;;;;;;;8.57;3.35;;;;;;;;;;5121809;27;20118;-59
2023/12/10 09:23:43;;;;;;;10.43;2.63;;;;;;;;;;5119764;27;20096;-59
2023/12/10 09:26:10;;;;;;;5.57;1.95;;;;;;;;;;5120729;27;20483;-59
2023/12/10 09:28:36;;;;;;;7.90;2.13;;;;;;;;;;5119453;27;20055;-62
2023/12/10 09:31:03;;;;;;;10.50;2.40;;;;;;;;;;5120091;27;20043;-58
2023/12/10 09:33:30;;;;;;;10.27;2.90;;;;;;;;;;5123076;27;20058;-58
2023/12/10 09:35:56;;;;;;;9.52;2.75;;;;;;;;;;5125825;27;20433;-62
2023/12/10 09:38:22;;;;;;;7.40;2.75;;;;;;;;;;5126772;27;20131;-60
2023/12/10 09:40:48;;;;;;;12.55;2.15;;;;;;;;;;5126836;27;20415;-61
2023/12/10 09:43:14;;;;;;;8.73;2.60;;;;;;;;;;5126235;27;20269;-61
2023/12/10 09:45:40;;;;;;;8.13;2.40;;;;;;;;;;5118576;27;20431;-60
2023/12/10 09:48:07;;;;;;;10.18;2.38;;;;;;;;;;5120341;27;20130;-60
2023/12/10 09:50:40;;;;;;;11.60;2.25;;;;;;;;;;5117409;27;20092;-60
2023/12/10 09:53:07;;;;;;;9.93;2.70;;;;;;;;;;5124147;27;20039;-60
2023/12/10 09:55:33;;;;;;;8.48;2.53;;;;;;;;;;5120848;27;20127;-60
2023/12/10 09:57:59;;;;;;;8.18;2.00;;;;;;;;;;5113392;27;20034;-60
2023/12/10 10:00:26;;;;;;;9.52;2.67;;;;;;;;;;5123228;27;20046;-60
2023/12/10 10:02:59;;;;;;;12.75;2.78;;;;;;;;;;5105030;27;20413;-60
2023/12/10 10:05:25;;;;;;;7.63;2.40;;;;;;;;;;5121093;27;20035;-60
2023/12/10 10:07:51;;;;;;;9.93;2.30;;;;;;;;;;5122881;27;20181;-59
2023/12/10 10:10:20;;;;;;;9.73;2.60;;;;;;;;;;5125091;27;20555;-60
2023/12/10 10:12:46;;;;;;;3.92;1.45;;;;;;;;;;5116677;27;20115;-61
2023/12/10 10:15:12;;;;;;;9.07;2.78;;;;;;;;;;5125491;27;20088;-60
2023/12/10 10:17:38;;;;;;;6.63;1.75;;;;;;;;;;5119168;27;20062;-60
2023/12/10 10:20:04;;;;;;;8.75;1.88;;;;;;;;;;5112411;27;20046;-60
2023/12/10 10:22:30;;;;;;;11.90;1.80;;;;;;;;;;5110845;27;20035;-60
2023/12/10 10:24:57;;;;;;;13.32;2.60;;;;;;;;;;5114005;27;20035;-60
2023/12/10 10:27:23;;;;;;;11.07;2.75;;;;;;;;;;5106856;27;20281;-60
2023/12/10 10:29:53;;;;;;;14.27;3.03;;;;;;;;;;5113383;27;20043;-60
2023/12/10 10:32:20;;;;;;;8.38;2.53;;;;;;;;;;5111912;27;20062;-60
2023/12/10 10:34:46;;;;;;;26.60;15.20;;;;;;;;;;5120272;27;20035;-59
2023/12/10 10:37:16;;;;;;;14.18;8.82;;;;;;;;;;5115470;27;20495;-60
2023/12/10 10:39:43;;;;;;;13.02;5.32;;;;;;;;;;5117240;27;20057;-60
2023/12/10 10:42:10;;;;;;;17.02;4.07;;;;;;;;;;5113263;27;20060;-60
2023/12/10 10:44:36;;;;;;;11.13;3.45;;;;;;;;;;5106712;27;20040;-60
2023/12/10 10:47:05;;;;;;;12.77;2.90;;;;;;;;;;5111536;27;20047;-60
2023/12/10 10:49:31;;;;;;;17.25;3.88;;;;;;;;;;5112967;27;20044;-60
2023/12/10 10:51:58;;;;;;;17.52;4.50;;;;;;;;;;5115680;27;20039;-60
2023/12/10 10:54:25;;;;;;;14.40;3.92;;;;;;;;;;5118969;27;20126;-60
2023/12/10 10:56:51;;;;;;;13.50;3.65;;;;;;;;;;5115452;27;20039;-60
2023/12/10 10:59:30;;;;;;;17.02;2.97;;;;;;;;;;5115766;27;20039;-60
2023/12/10 11:01:58;;;;;;;18.15;3.67;;;;;;;;;;5115418;27;20084;-60
2023/12/10 11:04:24;;;;;;;16.80;3.80;;;;;;;;;;5119791;27;20046;-60
2023/12/10 11:06:51;;;;;;;11.43;2.95;;;;;;;;;;5120239;27;20040;-60
2023/12/10 11:09:17;;;;;;;10.23;3.03;;;;;;;;;;5108989;27;20043;-59
2023/12/10 11:11:43;;;;;;;10.57;3.20;;;;;;;;;;5119051;27;20046;-59
2023/12/10 11:14:19;;;;;;;17.88;3.50;;;;;;;;;;5115609;27;20078;-59
2023/12/10 11:16:47;;;;;;;12.38;3.45;;;;;;;;;;5119401;27;20043;-59
2023/12/10 11:19:14;;;;;;;10.18;3.22;;;;;;;;;;5111251;27;20038;-59
2023/12/10 11:21:40;;;;;;;9.25;2.60;;;;;;;;;;5112896;27;20055;-59
2023/12/10 11:24:06;;;;;;;15.38;3.72;;;;;;;;;;5113431;27;20128;-59
2023/12/10 11:26:32;;;;;;;10.90;3.45;;;;;;;;;;5034453;27;20052;-59
2023/12/10 11:28:58;;;;;;;14.50;2.92;;;;;;;;;;5035894;27;20497;-59
2023/12/10 11:31:24;;;;;;;16.30;4.32;;;;;;;;;;5100201;27;20052;-59
2023/12/10 11:33:50;;;;;;;24.30;5.35;;;;;;;;;;5024874;28;20050;-60
2023/12/10 11:36:16;;;;;;;19.10;3.97;;;;;;;;;;5034121;27;20035;-59
2023/12/10 11:38:46;;;;;;;14.68;4.57;;;;;;;;;;5032351;27;20514;-59
2023/12/10 11:41:12;;;;;;;15.73;4.35;;;;;;;;;;5109655;28;20113;-60
2023/12/10 11:43:38;;;;;;;26.23;5.30;;;;;;;;;;5033579;27;20047;-59
2023/12/10 11:46:05;;;;;;;19.25;4.63;;;;;;;;;;5087434;27;20418;-59
2023/12/10 11:48:31;;;;;;;15.98;3.70;;;;;;;;;;5066294;27;20064;-59
2023/12/10 11:50:57;;;;;;;17.63;3.38;;;;;;;;;;5032165;27;20044;-59
2023/12/10 11:53:23;;;;;;;10.98;3.05;;;;;;;;;;5116151;27;20058;-59
2023/12/10 11:55:51;;;;;;;13.43;3.40;;;;;;;;;;5115105;28;20039;-59
2023/12/10 11:58:25;;;;;;;22.58;4.68;;;;;;;;;;5111553;28;20047;-59
2023/12/10 12:01:01;;;;;;;21.70;4.63;;;;;;;;;;5109911;28;20043;-62
2023/12/10 12:03:27;;;;;;;20.02;4.28;;;;;;;;;;5112355;28;20482;-60
2023/12/10 12:05:53;;;;;;;20.70;4.80;;;;;;;;;;5118879;28;20122;-59
2023/12/10 12:08:26;;;;;;;19.52;4.43;;;;;;;;;;5112727;28;20449;-61
2023/12/10 12:10:52;;;;;;;;;;;;;;;;;;5120402;27;20116;-62
2023/12/10 12:13:18;;;;;;;16.50;4.13;;;;;;;;;;5115013;27;20588;-62
2023/12/10 12:15:45;;;;;;;15.60;4.22;;;;;;;;;;5117526;27;20078;-62
2023/12/10 12:18:12;;;;;;;19.83;5.00;;;;;;;;;;5120992;27;20442;-62
2023/12/10 12:20:38;;;;;;;18.25;4.43;;;;;;;;;;5126108;27;20083;-62
2023/12/10 12:23:04;;;;;;;22.25;5.75;;;;;;;;;;5125672;27;20088;-61
2023/12/10 12:25:39;;;;;;;14.70;4.07;;;;;;;;;;5120748;27;20046;-62
2023/12/10 12:28:06;;;;;;;19.17;5.20;;;;;;;;;;5120827;27;20453;-62
2023/12/10 12:30:33;;;;;;;22.50;5.22;;;;;;;;;;5122718;27;20126;-62
2023/12/10 12:32:59;;;;;;;26.45;5.13;;;;;;;;;;5116979;27;20035;-61
2023/12/10 12:35:26;;;;;;;22.63;4.72;;;;;;;;;;5123311;27;20028;-61
2023/12/10 12:37:52;;;;;;;10.48;3.08;;;;;;;;;;5117158;27;20074;-61
2023/12/10 12:40:20;;;;;;;11.82;3.35;;;;;;;;;;5118561;27;20491;-61
2023/12/10 12:42:46;;;;;;;28.50;5.32;;;;;;;;;;5113356;27;20039;-61
2023/12/10 12:45:12;;;;;;;27.92;5.35;;;;;;;;;;5117078;27;20042;-61
2023/12/10 12:47:38;;;;;;;20.30;4.72;;;;;;;;;;5120095;27;20046;-60
2023/12/10 12:50:06;;;;;;;21.13;5.78;;;;;;;;;;5116397;27;20585;-61
2023/12/10 12:52:32;;;;;;;16.42;3.75;;;;;;;;;;5113235;27;20096;-61
2023/12/10 12:54:58;;;;;;;12.07;3.65;;;;;;;;;;5114361;27;20128;-62
2023/12/10 12:57:24;;;;;;;26.85;4.90;;;;;;;;;;5111482;27;20071;-61
2023/12/10 12:59:50;;;;;;;24.65;5.43;;;;;;;;;;5117400;27;20039;-62
2023/12/10 13:02:16;;;;;;;11.02;3.67;;;;;;;;;;5113303;27;20114;-62
2023/12/10 13:04:42;;;;;;;22.40;4.07;;;;;;;;;;5117418;27;20448;-62
2023/12/10 13:07:09;;;;;;;22.35;4.35;;;;;;;;;;5121477;27;20177;-62
2023/12/10 13:09:36;;;;;;;10.68;3.28;;;;;;;;;;5120794;27;20119;-62
2023/12/10 13:12:03;;;;;;;18.52;3.95;;;;;;;;;;5115755;27;20547;-62
2023/12/10 13:14:29;;;;;;;16.17;3.97;;;;;;;;;;5116682;27;20059;-62
2023/12/10 13:16:55;;;;;;;16.13;3.58;;;;;;;;;;5116536;27;20110;-61
2023/12/10 13:19:21;;;;;;;14.80;4.18;;;;;;;;;;5117501;27;20047;-62
2023/12/10 13:21:49;;;;;;;17.98;4.28;;;;;;;;;;5118893;27;20050;-62
2023/12/10 13:24:18;;;;;;;16.15;3.35;;;;;;;;;;5119918;27;20448;-62
2023/12/10 13:26:44;;;;;;;9.77;3.10;;;;;;;;;;5122722;27;20043;-61
2023/12/10 13:29:10;;;;;;;17.35;4.40;;;;;;;;;;5120963;27;20504;-62
2023/12/10 13:31:36;;;;;;;17.95;3.78;;;;;;;;;;5121116;27;20047;-62
2023/12/10 13:34:04;;;;;;;13.52;3.10;;;;;;;;;;5116121;27;20067;-62
2023/12/10 13:36:30;;;;;;;17.23;3.72;;;;;;;;;;5117604;27;20112;-62
2023/12/10 13:38:56;;;;;;;18.40;4.75;;;;;;;;;;5117022;27;20045;-62
2023/12/10 13:41:24;;;;;;;15.07;4.20;;;;;;;;;;5118850;27;20046;-62
2023/12/10 13:43:50;;;;;;;19.75;5.15;;;;;;;;;;5114313;27;20103;-62
2023/12/10 13:46:16;;;;;;;21.23;5.15;;;;;;;;;;5115446;27;20061;-62
2023/12/10 13:48:42;;;;;;;20.63;5.03;;;;;;;;;;5117272;27;20116;-62
2023/12/10 13:51:09;;;;;;;17.25;4.38;;;;;;;;;;5111225;27;20517;-62
2023/12/10 13:53:35;;;;;;;15.38;3.10;;;;;;;;;;5114854;27;20054;-62
2023/12/10 13:56:01;;;;;;;13.52;3.67;;;;;;;;;;5110932;27;20027;-62
2023/12/10 13:58:27;;;;;;;18.02;3.88;;;;;;;;;;5115813;27;20497;-62
2023/12/10 14:00:53;;;;;;;11.18;2.80;;;;;;;;;;5114711;27;20035;-61
2023/12/10 14:03:19;;;;;;;16.27;3.80;;;;;;;;;;5114815;27;20333;-62
2023/12/10 14:05:45;;;;;;;14.35;3.35;;;;;;;;;;5118880;27;20115;-62
2023/12/10 14:08:11;;;;;;;12.50;3.30;;;;;;;;;;5121567;27;20341;-62
2023/12/10 14:10:37;;;;;;;12.10;3.38;;;;;;;;;;5119746;27;20043;-62
2023/12/10 14:13:03;;;;;;;13.90;3.20;;;;;;;;;;5056517;27;20043;-62
2023/12/10 14:15:29;;;;;;;10.63;2.75;;;;;;;;;;5098589;27;20047;-62
2023/12/10 14:17:55;;;;;;;23.75;3.83;;;;;;;;;;5053447;27;20040;-61
2023/12/10 14:20:21;;;;;;;9.10;2.92;;;;;;;;;;5080528;27;20079;-61
2023/12/10 14:22:47;;;;;;;10.73;3.17;;;;;;;;;;5109897;27;20071;-61
2023/12/10 14:25:13;;;;;;;10.70;3.83;;;;;;;;;;5114605;27;20074;-61
2023/12/10 14:27:41;;;;;;;11.35;2.97;;;;;;;;;;5118318;27;20057;-62
2023/12/10 14:30:07;;;;;;;11.43;3.22;;;;;;;;;;5118742;27;20609;-61